Time;durP1;ratioP1;P1;durP2;ratioP2;P2;SDS_P1;SDS_P2;PMS_P1;PMS_P2;Temp;Humidity;BMP_temperature;BMP_pressure;BME280_temperature;BME280_humidity;BME280_pressure;Samples;Min_cycle;Max_cycle;Signal;HPM_P1;HPM_P2
2022/01/02 00:02:12;;;;;;;13.90;7.15;;;13.10;99.90;;;;;;5101701;28;20513;-59
2022/01/02 00:05:19;;;;;;;12.07;8.02;;;13.10;99.90;;;;;;5103681;28;20055;-60
2022/01/02 00:08:07;;;;;;;13.13;8.25;;;13.10;99.90;;;;;;5094381;28;20417;-60
2022/01/02 00:10:58;;;;;;;14.18;7.90;;;13.10;99.90;;;;;;5094575;28;20145;-60
2022/01/02 00:13:49;;;;;;;12.05;7.20;;;13.10;99.90;;;;;;5094386;28;20051;-59
2022/01/02 00:16:36;;;;;;;13.77;7.05;;;13.10;99.90;;;;;;5094219;28;20138;-59
2022/01/02 00:19:30;;;;;;;9.48;6.28;;;13.10;99.90;;;;;;5079052;28;20105;-60
2022/01/02 00:22:19;;;;;;;9.63;5.88;;;13.10;99.90;;;;;;5094192;28;20063;-59
2022/01/02 00:25:12;;;;;;;12.48;6.70;;;13.10;99.90;;;;;;5094159;28;20043;-58
2022/01/02 00:27:58;;;;;;;18.85;8.40;;;13.10;99.90;;;;;;5107695;28;20059;-58
2022/01/02 00:30:51;;;;;;;9.18;5.88;;;13.10;99.90;;;;;;5073585;28;20129;-58
2022/01/02 00:33:39;;;;;;;17.20;6.47;;;13.20;99.90;;;;;;5087702;28;20547;-57
2022/01/02 00:36:26;;;;;;;11.15;7.38;;;13.20;99.90;;;;;;5099147;28;20516;-58
2022/01/02 00:39:13;;;;;;;22.05;8.90;;;13.20;99.90;;;;;;5098922;28;20057;-59
2022/01/02 00:42:30;;;;;;;13.93;6.45;;;13.20;99.90;;;;;;5092733;28;20180;-58
2022/01/02 00:45:23;;;;;;;20.10;7.38;;;13.20;99.90;;;;;;5079966;28;20406;-58
2022/01/02 00:48:14;;;;;;;14.10;6.82;;;13.20;99.90;;;;;;5078442;28;20063;-57
2022/01/02 00:51:04;;;;;;;13.50;6.45;;;13.10;99.90;;;;;;5078986;28;20046;-58
2022/01/02 00:53:55;;;;;;;12.30;6.85;;;13.10;99.90;;;;;;5094347;28;20059;-58
2022/01/02 00:56:45;;;;;;;20.23;7.60;;;13.20;99.90;;;;;;5079498;28;20059;-58
2022/01/02 00:59:46;;;;;;;15.60;7.43;;;13.10;99.90;;;;;;5093764;28;20055;-58
2022/01/02 01:02:50;;;;;;;14.25;8.05;;;13.10;99.90;;;;;;5078782;28;20409;-58
2022/01/02 01:05:38;;;;;;;12.98;7.18;;;13.10;99.90;;;;;;5078799;28;20055;-57
2022/01/02 01:08:24;;;;;;;14.48;8.45;;;13.10;99.90;;;;;;5078608;28;20181;-58
2022/01/02 01:11:11;;;;;;;13.75;8.07;;;13.10;99.90;;;;;;5078816;28;20098;-57
2022/01/02 01:13:59;;;;;;;14.30;7.55;;;13.00;99.90;;;;;;5064262;28;20410;-57
2022/01/02 01:16:46;;;;;;;17.13;8.25;;;13.10;99.90;;;;;;5078504;28;20066;-57
2022/01/02 01:19:36;;;;;;;13.88;7.28;;;13.00;99.90;;;;;;5078470;28;20559;-57
2022/01/02 01:22:23;;;;;;;19.73;7.25;;;13.00;99.90;;;;;;5078615;28;20093;-57
2022/01/02 01:25:16;;;;;;;14.40;7.03;;;13.00;99.90;;;;;;5078507;28;20108;-57
2022/01/02 01:28:03;;;;;;;13.80;8.07;;;13.00;99.90;;;;;;5093655;28;20140;-57
2022/01/02 01:30:50;;;;;;;13.02;7.93;;;13.00;99.90;;;;;;5064568;28;20055;-58
2022/01/02 01:33:35;;;;;;;10.45;7.60;;;13.00;99.90;;;;;;5093727;28;20044;-57
2022/01/02 01:36:22;;;;;;;14.13;8.57;;;13.00;99.90;;;;;;5064124;28;20071;-57
2022/01/02 01:39:08;;;;;;;15.77;7.80;;;13.00;99.90;;;;;;5071277;28;20129;-57
2022/01/02 01:41:55;;;;;;;13.00;8.77;;;13.00;99.90;;;;;;5082001;28;20189;-58
2022/01/02 01:47:34;;;;;;;14.68;6.97;;;13.00;99.90;;;;;;5081603;28;20118;-58
2022/01/02 01:50:42;;;;;;;14.10;8.00;;;12.90;99.90;;;;;;5068208;28;20513;-56
2022/01/02 01:53:35;;;;;;;13.63;7.15;;;12.90;99.90;;;;;;5081911;28;20174;-58
2022/01/02 01:56:21;;;;;;;12.77;5.97;;;12.90;99.90;;;;;;5096994;28;20059;-58
2022/01/02 01:59:08;;;;;;;13.43;7.80;;;12.90;99.90;;;;;;5087659;28;20105;-58
2022/01/02 02:01:55;;;;;;;13.68;6.85;;;12.90;99.90;;;;;;5080056;28;20067;-57
2022/01/02 02:04:42;;;;;;;15.70;8.27;;;12.90;99.90;;;;;;5079477;28;20161;-57
2022/01/02 02:07:37;;;;;;;16.73;9.30;;;12.90;99.90;;;;;;5067497;28;20062;-58
2022/01/02 02:10:34;;;;;;;15.35;7.75;;;12.90;99.90;;;;;;5067437;28;20048;-58
2022/01/02 02:13:25;;;;;;;15.00;8.98;;;12.90;99.90;;;;;;5081390;28;20128;-58
2022/01/02 02:16:13;;;;;;;13.07;7.68;;;12.90;99.90;;;;;;5081420;28;20047;-59
2022/01/02 02:18:59;;;;;;;19.40;8.05;;;12.80;99.90;;;;;;5081499;28;20170;-57
2022/01/02 02:21:46;;;;;;;11.02;7.25;;;12.90;99.90;;;;;;5081354;28;20117;-56
2022/01/02 02:24:32;;;;;;;14.40;7.73;;;12.90;99.90;;;;;;5081274;28;20521;-57
2022/01/02 02:27:24;;;;;;;15.43;8.85;;;12.80;99.90;;;;;;5081168;28;20137;-58
2022/01/02 02:30:10;;;;;;;12.57;8.25;;;12.80;99.90;;;;;;5067227;28;20058;-55
2022/01/02 02:32:58;;;;;;;15.77;8.85;;;12.80;99.90;;;;;;5081418;28;20059;-57
2022/01/02 02:35:46;;;;;;;15.68;7.88;;;12.80;99.90;;;;;;5081200;28;20058;-54
2022/01/02 02:38:33;;;;;;;15.60;8.30;;;12.80;99.90;;;;;;5080977;28;20051;-58
2022/01/02 02:41:21;;;;;;;17.52;8.52;;;12.80;99.90;;;;;;5081003;28;20047;-57
2022/01/02 02:44:18;;;;;;;16.27;8.63;;;12.80;99.90;;;;;;5067002;28;20177;-57
2022/01/02 02:50:10;;;;;;;14.60;7.95;;;12.80;99.90;;;;;;5093515;28;20136;-58
2022/01/02 02:52:56;;;;;;;19.67;9.70;;;12.80;99.90;;;;;;5066769;28;20121;-57
2022/01/02 02:55:48;;;;;;;13.88;8.23;;;12.80;99.90;;;;;;5096065;28;20059;-58
2022/01/02 03:01:28;;;;;;;15.63;9.35;;;12.80;99.90;;;;;;5080725;28;20101;-58
2022/01/02 03:04:17;;;;;;;17.98;7.95;;;12.80;99.90;;;;;;5080544;28;20059;-58
2022/01/02 03:07:03;;;;;;;19.10;8.70;;;12.80;99.90;;;;;;5065233;28;20394;-58
2022/01/02 03:09:51;;;;;;;14.10;8.05;;;12.70;99.90;;;;;;5080405;28;20559;-58
2022/01/02 03:12:40;;;;;;;16.27;9.15;;;12.70;99.90;;;;;;5066834;28;20047;-58
2022/01/02 03:15:26;;;;;;;18.58;8.52;;;12.70;99.90;;;;;;5080237;28;20051;-58
2022/01/02 03:18:12;;;;;;;15.02;8.65;;;12.60;99.90;;;;;;5080009;28;20070;-58
2022/01/02 03:20:58;;;;;;;16.08;9.95;;;12.60;99.90;;;;;;5095627;28;20059;-58
2022/01/02 03:23:44;;;;;;;18.02;9.02;;;12.60;99.90;;;;;;5052295;28;20055;-58
2022/01/02 03:26:31;;;;;;;13.80;8.70;;;12.70;99.90;;;;;;5066194;28;20054;-58
2022/01/02 03:29:17;;;;;;;14.48;7.97;;;12.60;99.90;;;;;;5066044;28;20051;-57
2022/01/02 03:32:04;;;;;;;17.73;8.15;;;12.60;99.90;;;;;;5079864;28;20093;-58
2022/01/02 03:34:51;;;;;;;12.85;7.88;;;12.60;99.90;;;;;;5079840;28;20051;-58
2022/01/02 03:37:38;;;;;;;14.77;9.10;;;12.60;99.90;;;;;;5095072;28;20047;-58
2022/01/02 03:40:24;;;;;;;15.30;8.70;;;12.60;99.90;;;;;;5079960;28;20086;-57
2022/01/02 03:43:11;;;;;;;15.13;7.10;;;12.60;99.90;;;;;;5079824;28;20125;-57
2022/01/02 03:45:57;;;;;;;18.05;8.25;;;12.60;99.90;;;;;;5065723;28;20055;-58
2022/01/02 03:48:44;;;;;;;10.23;7.88;;;12.60;99.90;;;;;;5080033;28;20059;-57
2022/01/02 03:51:31;;;;;;;13.77;8.18;;;12.60;99.90;;;;;;5065781;28;20509;-58
2022/01/02 03:54:17;;;;;;;13.23;8.63;;;12.60;99.90;;;;;;5079526;28;20105;-57
2022/01/02 03:57:03;;;;;;;19.35;9.98;;;12.60;99.90;;;;;;5065836;28;20054;-59
2022/01/02 03:59:49;;;;;;;13.57;7.70;;;12.60;99.90;;;;;;5090919;28;20064;-59
2022/01/02 04:02:37;;;;;;;13.55;7.50;;;12.50;99.90;;;;;;5078907;28;20371;-59
2022/01/02 04:05:24;;;;;;;11.25;7.57;;;12.50;99.90;;;;;;5079426;28;20050;-58
2022/01/02 04:08:12;;;;;;;10.32;7.05;;;12.60;99.90;;;;;;5079327;28;20118;-58
2022/01/02 04:10:58;;;;;;;10.73;6.88;;;12.50;99.90;;;;;;5079305;28;20046;-58
2022/01/02 04:13:44;;;;;;;15.63;8.25;;;12.50;99.90;;;;;;5065346;28;20143;-59
2022/01/02 04:16:30;;;;;;;11.50;7.95;;;12.60;99.90;;;;;;5064920;28;20055;-58
2022/01/02 04:19:17;;;;;;;11.50;6.90;;;12.50;99.90;;;;;;5064898;28;20515;-58
2022/01/02 04:22:03;;;;;;;13.00;7.20;;;12.50;99.90;;;;;;5094467;28;20059;-58
2022/01/02 04:24:50;;;;;;;;;;;12.50;99.90;;;;;;5079570;28;20059;-59
2022/01/02 04:27:36;;;;;;;18.30;7.32;;;12.50;99.90;;;;;;5064951;28;19943;-58
2022/01/02 04:30:22;;;;;;;;;;;12.50;99.90;;;;;;5065463;28;20059;-58
2022/01/02 04:33:08;;;;;;;13.35;6.95;;;12.50;99.90;;;;;;5072128;28;20008;-58
2022/01/02 04:35:54;;;;;;;14.82;9.05;;;12.50;99.90;;;;;;5048409;28;20055;-57
2022/01/02 04:38:42;;;;;;;14.15;7.55;;;12.50;99.90;;;;;;5078697;28;20050;-58
2022/01/02 04:41:29;;;;;;;14.85;6.43;;;12.50;99.90;;;;;;5064814;28;20075;-57
2022/01/02 04:44:15;;;;;;;12.18;6.82;;;12.50;99.90;;;;;;5078719;28;20051;-59
2022/01/02 04:47:01;;;;;;;25.45;7.90;;;12.50;99.90;;;;;;5064601;28;20050;-58
2022/01/02 04:49:49;;;;;;;15.60;6.50;;;12.40;99.90;;;;;;5078765;28;20169;-57
2022/01/02 04:52:34;;;;;;;9.38;7.72;;;12.40;99.90;;;;;;5078688;28;20410;-57
2022/01/02 04:55:21;;;;;;;18.23;7.22;;;12.40;99.90;;;;;;5078833;28;20067;-58
2022/01/02 04:58:07;;;;;;;12.23;6.37;;;12.40;99.90;;;;;;5064386;28;20162;-58
2022/01/02 05:00:55;;;;;;;12.35;6.05;;;12.50;99.90;;;;;;5064781;28;20047;-60
2022/01/02 05:03:42;;;;;;;15.80;7.20;;;12.40;99.90;;;;;;5064699;28;20047;-57
2022/01/02 05:06:30;;;;;;;10.25;5.70;;;12.40;99.90;;;;;;5078475;28;20059;-57
2022/01/02 05:09:17;;;;;;;9.90;5.70;;;12.40;99.90;;;;;;5064648;28;20055;-58
2022/01/02 05:12:03;;;;;;;12.38;8.40;;;12.50;99.90;;;;;;5078722;28;20058;-58
2022/01/02 05:14:49;;;;;;;;;;;12.40;99.90;;;;;;5067221;28;20113;-58
2022/01/02 05:17:35;;;;;;;16.40;7.63;;;12.40;99.90;;;;;;5082272;28;19927;-58
2022/01/02 05:20:21;;;;;;;11.13;7.73;;;12.40;99.90;;;;;;5068354;28;20101;-58
2022/01/02 05:23:08;;;;;;;11.43;7.40;;;12.40;99.90;;;;;;5082416;28;20058;-58
2022/01/02 05:25:57;;;;;;;12.40;7.38;;;12.40;99.90;;;;;;5082564;28;20059;-58
2022/01/02 05:28:43;;;;;;;13.18;6.97;;;12.40;99.90;;;;;;5068569;28;20058;-58
2022/01/02 05:31:29;;;;;;;18.33;7.63;;;12.40;99.90;;;;;;5082282;28;20054;-58
2022/01/02 05:34:17;;;;;;;13.15;7.55;;;12.40;99.90;;;;;;5082266;28;20097;-57
2022/01/02 05:37:03;;;;;;;9.32;6.93;;;12.30;99.90;;;;;;5068095;28;20145;-58
2022/01/02 05:39:51;;;;;;;12.55;7.18;;;12.40;99.90;;;;;;5068306;28;20150;-57
2022/01/02 05:42:37;;;;;;;13.83;6.80;;;12.30;99.90;;;;;;5068008;28;20063;-58
2022/01/02 05:45:24;;;;;;;10.35;6.18;;;12.30;99.90;;;;;;5082040;28;20386;-58
2022/01/02 05:48:10;;;;;;;12.02;6.88;;;12.30;99.90;;;;;;5081457;28;20100;-56
2022/01/02 05:50:58;;;;;;;12.70;8.07;;;12.30;99.90;;;;;;5082144;28;20516;-56
2022/01/02 05:53:45;;;;;;;16.52;7.60;;;12.30;99.90;;;;;;5068222;28;20140;-57
2022/01/02 05:56:32;;;;;;;28.80;9.77;;;12.30;99.90;;;;;;5081495;28;20055;-58
2022/01/02 05:59:18;;;;;;;;;;;12.30;99.90;;;;;;5082109;28;20051;-57
2022/01/02 06:02:05;;;;;;;15.05;7.95;;;12.30;99.90;;;;;;5081705;28;19927;-57
2022/01/02 06:04:52;;;;;;;14.68;9.45;;;12.30;99.90;;;;;;5067695;28;20059;-57
2022/01/02 06:07:39;;;;;;;16.58;8.48;;;12.30;99.90;;;;;;5081659;28;20055;-57
2022/01/02 06:10:26;;;;;;;11.82;8.32;;;12.30;99.90;;;;;;5081605;28;20098;-58
2022/01/02 06:13:12;;;;;;;19.38;8.77;;;12.30;99.90;;;;;;5081728;28;20047;-60
2022/01/02 06:15:59;;;;;;;13.90;8.68;;;12.30;99.90;;;;;;5067704;28;20054;-58
2022/01/02 06:18:45;;;;;;;16.80;9.55;;;12.20;99.90;;;;;;5081039;28;20047;-58
2022/01/02 06:21:31;;;;;;;19.40;10.52;;;12.30;99.90;;;;;;5067489;28;20051;-58
2022/01/02 06:24:17;;;;;;;15.65;8.60;;;12.30;99.90;;;;;;5067374;28;20413;-58
2022/01/02 06:27:04;;;;;;;28.15;10.45;;;12.40;99.90;;;;;;5066340;28;20043;-58
2022/01/02 06:29:50;;;;;;;16.88;9.48;;;12.60;99.90;;;;;;5081452;28;20528;-58
2022/01/02 06:32:36;;;;;;;16.20;10.43;;;13.00;99.90;;;;;;5081312;28;20047;-57
2022/01/02 06:35:29;;;;;;;19.73;10.80;;;13.40;99.90;;;;;;5081162;28;20186;-58
2022/01/02 06:38:18;;;;;;;14.35;8.90;;;14.00;99.90;;;;;;5080635;28;20097;-58
2022/01/02 06:41:08;;;;;;;12.55;8.95;;;14.70;99.90;;;;;;5080948;28;20047;-58
2022/01/02 06:43:54;;;;;;;11.90;8.02;;;15.40;99.90;;;;;;5080912;28;20062;-58
2022/01/02 06:46:42;;;;;;;12.43;8.32;;;16.00;99.90;;;;;;5066914;28;20067;-58
2022/01/02 06:49:28;;;;;;;15.00;8.77;;;16.70;99.90;;;;;;5080787;28;20397;-58
2022/01/02 06:52:15;;;;;;;13.25;7.78;;;17.40;99.90;;;;;;5080806;28;20079;-58
2022/01/02 06:55:01;;;;;;;11.45;7.78;;;18.00;99.90;;;;;;5080843;28;20129;-58
2022/01/02 06:57:48;;;;;;;13.73;7.20;;;18.70;99.90;;;;;;5066546;28;20094;-58
2022/01/02 07:00:36;;;;;;;13.85;6.90;;;19.40;99.90;;;;;;5066954;28;20050;-58
2022/01/02 07:03:27;;;;;;;15.50;8.60;;;20.10;99.90;;;;;;5083131;28;20062;-58
2022/01/02 07:06:13;;;;;;;16.48;8.23;;;20.80;99.90;;;;;;5084416;28;20054;-59
2022/01/02 07:08:59;;;;;;;10.35;6.40;;;21.40;99.90;;;;;;5080085;28;20124;-59
2022/01/02 07:11:45;;;;;;;10.68;6.20;;;21.80;99.60;;;;;;5099802;28;20058;-59
2022/01/02 07:14:31;;;;;;;13.67;6.63;;;22.40;98.90;;;;;;5086625;28;20521;-58
2022/01/02 07:17:17;;;;;;;11.43;7.10;;;22.80;98.00;;;;;;5089137;28;20158;-58
2022/01/02 07:20:09;;;;;;;12.93;7.07;;;23.30;97.30;;;;;;5079392;28;20055;-59
2022/01/02 07:22:56;;;;;;;11.02;6.47;;;23.80;96.00;;;;;;5108006;28;20393;-59
2022/01/02 07:25:42;;;;;;;9.70;5.88;;;24.30;95.20;;;;;;5090940;28;20146;-58
2022/01/02 07:28:29;;;;;;;15.43;6.70;;;24.70;94.60;;;;;;5111143;28;20121;-59
2022/01/02 07:31:15;;;;;;;13.60;6.13;;;25.10;93.80;;;;;;5078448;28;20097;-60
2022/01/02 07:34:02;;;;;;;10.10;6.60;;;25.40;93.40;;;;;;5085308;28;20066;-59
2022/01/02 07:36:47;;;;;;;;;;;25.70;92.70;;;;;;5088446;28;20124;-58
2022/01/02 07:39:34;;;;;;;10.57;6.43;;;26.00;92.00;;;;;;5081705;28;19927;-58
2022/01/02 07:42:20;;;;;;;13.35;7.82;;;26.20;91.60;;;;;;5085685;28;20512;-59
2022/01/02 07:45:13;;;;;;;8.82;5.70;;;26.40;91.10;;;;;;5072638;28;20059;-59
2022/01/02 07:48:00;;;;;;;;;;;26.30;90.80;;;;;;5092590;28;20120;-58
2022/01/02 07:50:48;;;;;;;11.77;6.45;;;26.20;91.00;;;;;;5096120;28;19930;-58
2022/01/02 07:53:34;;;;;;;10.80;6.07;;;26.00;90.90;;;;;;5091395;28;20195;-58
2022/01/02 07:56:20;;;;;;;12.95;6.18;;;25.70;91.20;;;;;;5084663;28;20123;-58
2022/01/02 07:59:06;;;;;;;9.75;6.05;;;25.30;91.40;;;;;;5104560;28;20055;-58
2022/01/02 08:01:52;;;;;;;8.68;5.60;;;24.90;91.70;;;;;;5069369;28;20054;-59
2022/01/02 08:04:39;;;;;;;8.93;5.47;;;24.50;92.10;;;;;;5088336;28;20055;-59
2022/01/02 08:07:25;;;;;;;8.32;7.20;;;24.10;92.50;;;;;;5081962;28;20051;-58
2022/01/02 08:10:11;;;;;;;14.52;6.35;;;23.80;93.00;;;;;;5087491;28;20046;-58
2022/01/02 08:12:57;;;;;;;;;;;23.50;93.30;;;;;;5082444;28;20067;-59
2022/01/02 08:15:43;;;;;;;10.75;5.78;;;23.20;93.60;;;;;;5102875;28;19926;-59
2022/01/02 08:18:30;;;;;;;9.68;5.70;;;23.10;94.00;;;;;;5097570;28;20089;-59
2022/01/02 08:21:16;;;;;;;9.68;6.68;;;22.90;94.20;;;;;;5107780;28;20501;-58
2022/01/02 08:24:02;;;;;;;8.50;5.57;;;22.80;94.40;;;;;;5089336;28;20063;-59
2022/01/02 08:26:48;;;;;;;;;;;22.70;94.40;;;;;;5087287;28;20120;-58
2022/01/02 08:29:35;;;;;;;13.25;6.97;;;22.60;94.80;;;;;;5114461;28;19926;-59
2022/01/02 08:32:21;;;;;;;12.60;6.15;;;22.40;95.00;;;;;;5078588;28;20164;-58
2022/01/02 08:35:10;;;;;;;11.02;6.00;;;22.20;95.50;;;;;;5078737;28;20043;-59
2022/01/02 08:37:56;;;;;;;10.20;5.72;;;22.00;95.70;;;;;;5078267;28;20452;-59
2022/01/02 08:40:42;;;;;;;13.07;6.35;;;21.70;96.20;;;;;;5090941;28;20104;-59
2022/01/02 08:43:29;;;;;;;;;;;21.50;96.60;;;;;;5085041;28;20076;-58
2022/01/02 08:46:15;;;;;;;12.10;5.00;;;21.10;97.30;;;;;;5084758;28;20281;-59
2022/01/02 08:49:01;;;;;;;13.35;5.40;;;20.90;97.80;;;;;;5098429;28;20076;-58
2022/01/02 08:51:47;;;;;;;11.25;5.57;;;20.60;98.20;;;;;;5107735;28;20150;-58
2022/01/02 08:54:34;;;;;;;8.73;5.63;;;20.40;98.70;;;;;;5078610;28;20525;-58
2022/01/02 08:57:20;;;;;;;11.38;5.20;;;20.10;99.10;;;;;;5079130;28;20405;-58
2022/01/02 09:00:07;;;;;;;8.05;4.47;;;19.90;99.40;;;;;;5093682;28;20058;-59
2022/01/02 09:02:53;;;;;;;10.43;4.10;;;19.80;99.80;;;;;;5090245;28;20058;-58
2022/01/02 09:05:41;;;;;;;9.43;4.07;;;19.70;99.90;;;;;;5105723;28;20046;-58
2022/01/02 09:08:28;;;;;;;6.55;4.28;;;19.60;99.90;;;;;;5098488;28;20444;-59
2022/01/02 09:11:14;;;;;;;9.68;4.03;;;19.50;99.90;;;;;;5087188;28;20121;-60
2022/01/02 09:14:03;;;;;;;7.53;4.10;;;19.40;99.90;;;;;;5082000;28;20116;-61
2022/01/02 09:16:49;;;;;;;6.90;3.70;;;19.40;99.90;;;;;;5079030;28;20124;-60
2022/01/02 09:19:35;;;;;;;6.82;4.75;;;19.30;99.90;;;;;;5093975;28;20410;-60
2022/01/02 09:22:22;;;;;;;8.23;4.05;;;19.20;99.90;;;;;;5080822;28;20050;-61
2022/01/02 09:25:09;;;;;;;7.70;3.92;;;19.20;99.90;;;;;;5084182;28;20047;-58
2022/01/02 09:27:55;;;;;;;6.60;4.20;;;19.10;99.90;;;;;;5086259;28;20122;-60
2022/01/02 09:30:41;;;;;;;6.15;4.75;;;19.20;99.90;;;;;;5088905;28;20046;-60
2022/01/02 09:33:27;;;;;;;7.60;3.80;;;19.10;99.90;;;;;;5104677;28;20054;-60
2022/01/02 09:36:13;;;;;;;6.57;3.50;;;19.10;99.90;;;;;;5100079;28;20179;-62
2022/01/02 09:38:59;;;;;;;6.15;3.10;;;19.10;99.90;;;;;;5088659;28;20054;-60
2022/01/02 09:41:45;;;;;;;6.82;4.57;;;19.10;99.90;;;;;;5086382;28;20096;-59
2022/01/02 09:44:32;;;;;;;5.72;3.10;;;19.10;99.90;;;;;;5087322;28;20575;-61
2022/01/02 09:47:21;;;;;;;5.15;3.00;;;19.10;99.90;;;;;;5087849;28;20508;-60
2022/01/02 09:50:09;;;;;;;8.55;4.18;;;19.10;99.90;;;;;;5099864;28;20042;-60
2022/01/02 09:52:55;;;;;;;9.32;4.90;;;19.10;99.90;;;;;;5098757;28;20585;-60
2022/01/02 09:55:23;;;;;;;5.40;3.70;;;19.20;99.90;;;;;;5101523;28;20069;-60
2022/01/02 09:57:53;;;;;;;8.88;3.55;;;19.20;99.90;;;;;;5100393;28;20779;-60
2022/01/02 10:00:21;;;;;;;5.80;3.50;;;19.20;99.90;;;;;;5083051;28;20048;-60
2022/01/02 10:03:03;;;;;;;7.57;3.83;;;19.10;99.90;;;;;;5103730;28;20044;-60
2022/01/02 10:05:56;;;;;;;9.18;3.20;;;19.10;99.90;;;;;;5102419;28;20035;-60
2022/01/02 10:08:25;;;;;;;5.35;3.40;;;19.10;99.90;;;;;;5083927;28;20059;-60
2022/01/02 10:11:07;;;;;;;5.50;3.20;;;19.10;99.90;;;;;;5090992;28;20062;-60
2022/01/02 10:13:48;;;;;;;6.57;2.97;;;19.20;99.90;;;;;;5101441;28;20101;-60
2022/01/02 10:16:20;;;;;;;8.73;3.78;;;19.20;99.90;;;;;;5105820;28;20027;-60
2022/01/02 10:18:49;;;;;;;6.00;3.53;;;19.30;99.90;;;;;;5102775;28;20058;-60
2022/01/02 10:21:31;;;;;;;5.32;3.75;;;19.30;99.90;;;;;;5067139;28;20051;-60
2022/01/02 10:24:12;;;;;;;8.18;4.60;;;19.20;99.90;;;;;;5080584;28;20063;-60
2022/01/02 10:26:41;;;;;;;5.13;3.92;;;19.30;99.90;;;;;;5087436;28;20578;-60
2022/01/02 10:29:12;;;;;;;5.75;2.75;;;19.30;99.90;;;;;;5084952;28;20405;-61
2022/01/02 10:31:41;;;;;;;8.10;4.07;;;19.30;99.90;;;;;;5098788;28;20035;-60
2022/01/02 10:34:08;;;;;;;6.82;3.50;;;19.30;99.90;;;;;;5098092;28;20135;-60
2022/01/02 10:36:40;;;;;;;10.35;4.63;;;19.30;99.80;;;;;;5086507;28;20067;-61
2022/01/02 10:39:09;;;;;;;10.38;4.20;;;19.30;99.90;;;;;;5103443;27;20040;-59
2022/01/02 10:41:43;;;;;;;8.27;3.65;;;19.30;99.60;;;;;;5091238;28;20047;-62
2022/01/02 10:44:31;;;;;;;6.78;4.85;;;19.30;99.70;;;;;;5080409;28;20130;-60
2022/01/02 10:47:26;;;;;;;9.32;3.83;;;19.30;99.90;;;;;;5101341;27;20060;-60
2022/01/02 10:49:54;;;;;;;6.20;3.75;;;19.40;99.90;;;;;;5081601;28;20052;-61
2022/01/02 10:52:29;;;;;;;7.90;3.65;;;19.40;99.90;;;;;;5095068;28;20503;-61
2022/01/02 10:55:00;;;;;;;7.53;4.35;;;19.50;99.90;;;;;;5105497;27;20085;-60
2022/01/02 10:57:28;;;;;;;8.13;5.72;;;19.50;99.80;;;;;;5091311;28;20031;-57
2022/01/02 10:59:57;;;;;;;7.57;5.25;;;19.50;99.90;;;;;;5105681;27;20059;-60
2022/01/02 11:02:26;;;;;;;9.10;5.30;;;19.50;99.90;;;;;;5071639;28;20032;-59
2022/01/02 11:05:04;;;;;;;9.05;5.90;;;19.40;99.90;;;;;;5100516;28;20043;-60
2022/01/02 11:07:55;;;;;;;7.20;4.60;;;19.40;99.90;;;;;;5089846;28;20615;-60
2022/01/02 11:10:24;;;;;;;8.00;4.00;;;19.40;99.90;;;;;;5098907;28;20094;-60
2022/01/02 11:12:53;;;;;;;7.72;4.53;;;19.40;99.90;;;;;;5113472;28;20082;-60
2022/01/02 11:15:26;;;;;;;8.77;4.10;;;19.40;99.90;;;;;;5049284;28;20044;-58
2022/01/02 11:17:58;;;;;;;9.02;6.20;;;19.30;99.90;;;;;;5086205;28;20387;-59
2022/01/02 11:20:28;;;;;;;6.68;5.40;;;19.30;99.90;;;;;;5099646;27;20199;-58
2022/01/02 11:22:59;;;;;;;10.18;6.57;;;19.40;99.90;;;;;;5082297;28;20044;-58
2022/01/02 11:25:42;;;;;;;6.85;4.05;;;19.40;99.40;;;;;;5094074;28;20101;-58
2022/01/02 11:28:30;;;;;;;5.25;3.72;;;19.40;99.00;;;;;;5081748;28;20513;-59
2022/01/02 11:30:58;;;;;;;5.82;3.35;;;19.40;99.10;;;;;;5088428;28;20039;-59
2022/01/02 11:33:32;;;;;;;6.38;3.20;;;19.50;99.30;;;;;;5056753;28;20134;-57
2022/01/02 11:36:21;;;;;;;8.25;3.55;;;19.50;99.80;;;;;;5093132;28;20046;-59
2022/01/02 11:38:58;;;;;;;6.15;3.65;;;19.50;99.70;;;;;;5059140;28;20563;-58
2022/01/02 11:41:42;;;;;;;4.13;2.60;;;19.50;99.10;;;;;;5102011;27;20035;-58
2022/01/02 11:44:17;;;;;;;5.43;2.90;;;19.40;99.20;;;;;;5085696;27;20039;-60
2022/01/02 11:46:57;;;;;;;6.18;2.80;;;19.30;99.10;;;;;;5069345;28;20317;-59
2022/01/02 11:49:43;;;;;;;5.20;2.72;;;19.30;98.90;;;;;;5086211;28;20059;-58
2022/01/02 11:52:19;;;;;;;5.38;3.65;;;19.20;98.70;;;;;;5087379;28;20036;-59
2022/01/02 11:54:48;;;;;;;4.97;3.08;;;19.10;98.50;;;;;;5108659;28;20038;-58
2022/01/02 11:57:18;;;;;;;6.68;3.35;;;19.00;97.90;;;;;;5084956;28;20048;-59
2022/01/02 11:59:46;;;;;;;6.43;3.83;;;19.00;98.20;;;;;;5084154;28;20039;-59
2022/01/02 12:02:13;;;;;;;5.68;3.10;;;19.00;98.10;;;;;;5089002;28;20119;-58
2022/01/02 12:07:33;;;;;;;7.07;3.83;;;19.00;98.50;;;;;;5093803;28;20059;-58
2022/01/02 12:10:24;;;;;;;6.35;3.88;;;19.00;98.60;;;;;;5075837;28;20062;-58
2022/01/02 12:13:06;;;;;;;5.55;3.55;;;19.00;98.80;;;;;;5075105;28;20062;-59
2022/01/02 12:15:33;;;;;;;9.10;3.47;;;19.10;99.10;;;;;;5087854;28;20040;-58
2022/01/02 12:18:28;;;;;;;6.88;3.78;;;19.10;99.10;;;;;;5112103;28;20134;-58
2022/01/02 12:21:04;;;;;;;6.13;3.20;;;19.10;99.50;;;;;;5089051;28;20047;-58
2022/01/02 12:23:41;;;;;;;5.03;3.00;;;19.20;99.40;;;;;;5041836;28;20059;-58
2022/01/02 12:26:21;;;;;;;5.32;3.53;;;19.10;99.20;;;;;;5075579;28;20118;-57
2022/01/02 12:28:58;;;;;;;7.47;3.55;;;19.00;99.50;;;;;;5076428;28;20158;-57
2022/01/02 12:31:32;;;;;;;6.07;3.80;;;19.10;99.90;;;;;;5094080;28;20044;-57
2022/01/02 12:34:19;;;;;;;4.43;3.20;;;19.00;99.50;;;;;;5075911;28;20089;-58
2022/01/02 12:36:49;;;;;;;3.90;2.75;;;18.90;99.60;;;;;;5082299;28;20040;-57
2022/01/02 12:39:24;;;;;;;4.28;2.92;;;18.90;99.70;;;;;;5084986;28;20036;-57
2022/01/02 12:41:52;;;;;;;5.03;3.40;;;18.90;99.90;;;;;;5062499;28;20051;-57
2022/01/02 12:44:28;;;;;;;7.50;3.47;;;18.90;99.80;;;;;;5096000;28;20043;-57
2022/01/02 12:47:01;;;;;;;6.90;3.72;;;18.80;99.70;;;;;;5080131;28;20044;-57
2022/01/02 12:49:33;;;;;;;5.68;2.72;;;18.60;99.20;;;;;;5058725;28;20375;-57
2022/01/02 12:52:13;;;;;;;6.13;3.53;;;18.60;99.30;;;;;;5075748;28;20215;-57
2022/01/02 12:54:43;;;;;;;5.40;2.97;;;18.60;98.90;;;;;;5049294;28;20097;-57
2022/01/02 12:57:12;;;;;;;7.03;3.65;;;18.50;99.10;;;;;;5058647;28;20048;-57
2022/01/02 12:59:42;;;;;;;5.28;3.03;;;18.40;99.40;;;;;;5057111;28;20049;-57
2022/01/02 13:02:24;;;;;;;5.65;3.08;;;18.40;99.30;;;;;;5058973;28;20048;-57
2022/01/02 13:04:59;;;;;;;7.32;3.83;;;18.40;99.20;;;;;;5060236;28;20059;-57
2022/01/02 13:07:35;;;;;;;5.80;3.28;;;18.40;98.60;;;;;;5075594;28;20063;-58
2022/01/02 13:10:07;;;;;;;6.15;3.53;;;18.30;98.80;;;;;;5097609;28;20035;-57
2022/01/02 13:12:37;;;;;;;5.95;3.42;;;18.30;98.70;;;;;;5092946;28;20042;-57
2022/01/02 13:15:10;;;;;;;5.97;3.33;;;18.30;98.70;;;;;;5079986;28;20168;-57
2022/01/02 13:17:44;;;;;;;5.28;2.78;;;18.30;99.00;;;;;;5095495;28;20036;-57
2022/01/02 13:20:11;;;;;;;7.70;4.65;;;18.30;99.30;;;;;;5078741;28;20453;-58
2022/01/02 13:22:46;;;;;;;5.40;3.15;;;18.20;99.20;;;;;;5058936;28;20127;-57
2022/01/02 13:25:28;;;;;;;9.23;3.40;;;18.10;99.20;;;;;;5084231;28;20477;-57
2022/01/02 13:28:01;;;;;;;5.82;2.60;;;18.10;99.40;;;;;;5113699;28;20436;-57
2022/01/02 13:30:39;;;;;;;3.70;2.95;;;18.10;99.40;;;;;;5067985;28;20051;-58
2022/01/02 13:33:30;;;;;;;5.57;4.47;;;18.00;99.50;;;;;;5095391;28;20068;-58
2022/01/02 13:36:15;;;;;;;7.15;3.92;;;18.00;99.30;;;;;;5113266;28;20494;-57
2022/01/02 13:38:57;;;;;;;9.57;4.05;;;18.00;99.20;;;;;;5062499;28;20397;-57
2022/01/02 13:41:27;;;;;;;6.90;4.43;;;17.90;99.60;;;;;;5097219;28;20431;-58
2022/01/02 13:43:56;;;;;;;7.03;3.88;;;17.90;99.70;;;;;;5079140;28;20135;-58
2022/01/02 13:46:26;;;;;;;7.50;3.78;;;17.90;99.70;;;;;;5078871;28;20052;-57
2022/01/02 13:48:54;;;;;;;7.10;3.53;;;17.90;99.30;;;;;;5097089;28;20131;-57
2022/01/02 13:51:24;;;;;;;10.02;4.85;;;17.90;99.30;;;;;;5097022;28;20048;-58
2022/01/02 13:53:51;;;;;;;6.43;3.90;;;17.80;99.20;;;;;;5097445;28;20083;-58
2022/01/02 13:56:20;;;;;;;7.80;4.53;;;17.80;99.40;;;;;;5105830;28;20123;-58
2022/01/02 13:58:50;;;;;;;5.95;3.85;;;17.80;99.50;;;;;;5061640;28;20073;-57
2022/01/02 14:01:33;;;;;;;6.43;4.00;;;17.70;99.60;;;;;;5062174;28;20042;-58
2022/01/02 14:04:06;;;;;;;7.93;4.55;;;17.70;99.70;;;;;;5078831;28;20051;-58
2022/01/02 14:06:38;;;;;;;10.73;5.35;;;17.60;99.70;;;;;;5103616;28;20512;-58
2022/01/02 14:09:11;;;;;;;5.55;4.00;;;17.60;99.80;;;;;;5085673;28;20055;-58
2022/01/02 14:11:41;;;;;;;6.13;4.25;;;17.50;99.90;;;;;;5078831;28;20371;-57
2022/01/02 14:19:47;;;;;;;8.30;4.90;;;17.40;99.90;;;;;;5106538;28;20049;-58
2022/01/02 14:22:22;;;;;;;12.00;6.38;;;17.40;99.90;;;;;;5088506;28;20052;-58
2022/01/02 14:24:50;;;;;;;11.32;6.63;;;17.30;99.90;;;;;;5081405;28;20047;-58